FAD9102 OEJN-WAAA
Flight info
| Callsign | FAD9102 |
|---|---|
| Flight time | N/A |
| Altitude | 31000 |
| Route | EGREP T532 KODIS Y214 RAPMA/N0512F290 T533 ULONO L692 DAPOL/N0505F330 L692 GISKA N569 LOTAV M300 MDI/N0499F350 M300 RULKA L896 SULEN P570 PKU DCT PKP/N0493F370 DCT RAFIS DCT KEVOK |
| Aircraft | B77W/H-SDE1E2E3FGHIJ2J3J4J5M1RWXY/LB1D1 |
Departure
| Time | 2026-05-01 08:27 |
|---|---|
| Airport | King Abdulaziz International Airport (OEJN) |
Arrival
| Time | N/A |
|---|---|
| Airport | Sultan Hasanuddin International Airport (WAAA) |
| Time | Latitude | Longitude | Altitude | Speed | Heading |
|---|---|---|---|---|---|
| 2026-05-01 07:56 | 21.67259 | 39.17339 | 35 ft | 0 kts | 309° |
| 2026-05-01 08:17 | 21.67254 | 39.17347 | 34 ft | 4 kts | 309° |
| 2026-05-01 08:18 | 21.67237 | 39.17369 | 35 ft | 4 kts | 309° |
| 2026-05-01 08:18 | 21.67202 | 39.17403 | 34 ft | 4 kts | 8° |
| 2026-05-01 08:19 | 21.67167 | 39.17381 | 35 ft | 1 kts | 38° |
| 2026-05-01 08:19 | 21.67165 | 39.17379 | 35 ft | 0 kts | 38° |
| 2026-05-01 08:21 | 21.67177 | 39.17392 | 35 ft | 7 kts | 47° |
| 2026-05-01 08:21 | 21.67201 | 39.17443 | 35 ft | 8 kts | 72° |
| 2026-05-01 08:22 | 21.67190 | 39.17495 | 35 ft | 8 kts | 133° |
| 2026-05-01 08:22 | 21.67142 | 39.17519 | 35 ft | 8 kts | 159° |
| 2026-05-01 08:22 | 21.67092 | 39.17539 | 35 ft | 8 kts | 160° |
| 2026-05-01 08:22 | 21.67041 | 39.17559 | 35 ft | 8 kts | 160° |
| 2026-05-01 08:23 | 21.67003 | 39.17574 | 35 ft | 9 kts | 160° |
| 2026-05-01 08:23 | 21.66940 | 39.17599 | 35 ft | 10 kts | 160° |
| 2026-05-01 08:23 | 21.66871 | 39.17626 | 35 ft | 11 kts | 160° |
| 2026-05-01 08:23 | 21.66795 | 39.17656 | 35 ft | 12 kts | 160° |
| 2026-05-01 08:24 | 21.66719 | 39.17686 | 35 ft | 12 kts | 160° |
| 2026-05-01 08:24 | 21.66639 | 39.17717 | 35 ft | 12 kts | 161° |
| 2026-05-01 08:24 | 21.66578 | 39.17771 | 35 ft | 12 kts | 100° |
| 2026-05-01 08:24 | 21.66607 | 39.17855 | 36 ft | 12 kts | 68° |
| 2026-05-01 08:25 | 21.66634 | 39.17941 | 36 ft | 12 kts | 71° |
| 2026-05-01 08:25 | 21.66669 | 39.18018 | 36 ft | 11 kts | 42° |
| 2026-05-01 08:25 | 21.66743 | 39.18013 | 37 ft | 11 kts | 335° |
| 2026-05-01 08:25 | 21.66850 | 39.17969 | 38 ft | 29 kts | 340° |
| 2026-05-01 08:26 | 21.67256 | 39.17809 | 36 ft | 95 kts | 340° |
| 2026-05-01 08:26 | 21.68072 | 39.17486 | 34 ft | 153 kts | 340° |
| 2026-05-01 08:26 | 21.69223 | 39.17032 | 40 ft | 196 kts | 340° |
| 2026-05-01 08:26 | 21.70574 | 39.16495 | 309 ft | 207 kts | 340° |
| 2026-05-01 08:27 | 21.71908 | 39.15956 | 898 ft | 206 kts | 341° |
| 2026-05-01 08:27 | 21.73341 | 39.15567 | 1308 ft | 219 kts | 353° |
| 2026-05-01 08:27 | 21.74859 | 39.15677 | 1979 ft | 217 kts | 15° |
| 2026-05-01 08:27 | 21.76172 | 39.16378 | 2519 ft | 214 kts | 36° |
| 2026-05-01 08:28 | 21.77365 | 39.17433 | 2674 ft | 230 kts | 38° |
| 2026-05-01 08:28 | 21.78649 | 39.18556 | 2840 ft | 246 kts | 37° |
| 2026-05-01 08:28 | 21.80029 | 39.19706 | 3249 ft | 256 kts | 36° |
| 2026-05-01 08:28 | 21.81472 | 39.20881 | 3580 ft | 265 kts | 36° |
| 2026-05-01 08:29 | 21.82975 | 39.22082 | 4046 ft | 273 kts | 35° |
| 2026-05-01 08:29 | 21.84545 | 39.23295 | 4477 ft | 281 kts | 35° |
| 2026-05-01 08:29 | 21.86150 | 39.24546 | 4945 ft | 287 kts | 35° |
| 2026-05-01 08:29 | 21.87778 | 39.25819 | 5515 ft | 291 kts | 35° |
| 2026-05-01 08:30 | 21.89423 | 39.27093 | 5973 ft | 293 kts | 34° |
| 2026-05-01 08:30 | 21.91091 | 39.28368 | 5948 ft | 297 kts | 35° |
| 2026-05-01 08:30 | 21.92764 | 39.29668 | 5980 ft | 296 kts | 35° |
| 2026-05-01 08:30 | 21.94438 | 39.30939 | 6000 ft | 294 kts | 32° |
| 2026-05-01 08:31 | 21.96175 | 39.32108 | 6515 ft | 296 kts | 30° |
| 2026-05-01 08:31 | 21.97951 | 39.33260 | 7074 ft | 301 kts | 31° |
| 2026-05-01 08:31 | 21.99751 | 39.34438 | 7581 ft | 304 kts | 31° |
| 2026-05-01 08:31 | 22.01575 | 39.35627 | 8101 ft | 308 kts | 31° |
| 2026-05-01 08:32 | 22.03416 | 39.36837 | 8607 ft | 312 kts | 31° |
| 2026-05-01 08:32 | 22.05283 | 39.38064 | 9072 ft | 317 kts | 31° |
| 2026-05-01 08:32 | 22.07172 | 39.39311 | 9565 ft | 320 kts | 31° |
| 2026-05-01 08:32 | 22.09079 | 39.40570 | 10083 ft | 322 kts | 31° |
| 2026-05-01 08:33 | 22.10996 | 39.41841 | 10564 ft | 326 kts | 31° |
| 2026-05-01 08:33 | 22.12936 | 39.43128 | 11086 ft | 330 kts | 31° |
| 2026-05-01 08:33 | 22.14899 | 39.44432 | 11639 ft | 333 kts | 31° |
| 2026-05-01 08:33 | 22.16882 | 39.45750 | 12234 ft | 336 kts | 31° |
| 2026-05-01 08:34 | 22.18872 | 39.47071 | 12841 ft | 337 kts | 31° |
| 2026-05-01 08:34 | 22.20884 | 39.48407 | 13010 ft | 343 kts | 30° |
| 2026-05-01 08:34 | 22.22918 | 39.49759 | 13012 ft | 343 kts | 30° |
| 2026-05-01 08:34 | 22.24945 | 39.51104 | 13003 ft | 341 kts | 30° |
| 2026-05-01 08:35 | 22.26957 | 39.52437 | 13015 ft | 338 kts | 30° |
| 2026-05-01 08:35 | 22.28961 | 39.53764 | 13017 ft | 338 kts | 30° |
| 2026-05-01 08:35 | 22.30958 | 39.55093 | 13020 ft | 336 kts | 31° |
| 2026-05-01 08:35 | 22.32727 | 39.56704 | 13006 ft | 336 kts | 54° |
| 2026-05-01 08:36 | 22.33922 | 39.58884 | 13059 ft | 342 kts | 62° |
| 2026-05-01 08:36 | 22.35049 | 39.61135 | 13146 ft | 346 kts | 62° |
| 2026-05-01 08:36 | 22.36214 | 39.63440 | 13795 ft | 346 kts | 61° |
| 2026-05-01 08:36 | 22.37363 | 39.65691 | 14440 ft | 348 kts | 62° |
| 2026-05-01 08:37 | 22.38540 | 39.67988 | 15092 ft | 351 kts | 60° |
| 2026-05-01 08:37 | 22.39733 | 39.70305 | 15687 ft | 354 kts | 61° |
| 2026-05-01 08:37 | 22.40930 | 39.72650 | 16250 ft | 358 kts | 60° |
| 2026-05-01 08:37 | 22.42142 | 39.75015 | 16843 ft | 361 kts | 60° |
| 2026-05-01 08:38 | 22.43368 | 39.77393 | 17417 ft | 364 kts | 60° |
| 2026-05-01 08:38 | 22.44598 | 39.79799 | 17961 ft | 367 kts | 60° |
| 2026-05-01 08:38 | 22.45846 | 39.82231 | 18530 ft | 370 kts | 59° |
| 2026-05-01 08:38 | 22.47325 | 39.84489 | 18954 ft | 368 kts | 41° |
| 2026-05-01 08:39 | 22.49240 | 39.86324 | 19314 ft | 372 kts | 37° |
| 2026-05-01 08:39 | 22.51253 | 39.88171 | 19467 ft | 388 kts | 38° |
| 2026-05-01 08:39 | 22.53356 | 39.90115 | 19616 ft | 405 kts | 38° |
| 2026-05-01 08:39 | 22.55532 | 39.92142 | 19736 ft | 421 kts | 38° |
| 2026-05-01 08:40 | 22.60109 | 39.96468 | 20053 ft | 450 kts | 39° |
| 2026-05-01 08:40 | 22.62482 | 39.98728 | 20416 ft | 458 kts | 39° |
| 2026-05-01 08:40 | 22.64883 | 40.01022 | 20933 ft | 462 kts | 39° |
| 2026-05-01 08:41 | 22.67287 | 40.03332 | 21503 ft | 463 kts | 39° |
| 2026-05-01 08:41 | 22.69696 | 40.05645 | 22021 ft | 464 kts | 38° |
| 2026-05-01 08:41 | 22.72124 | 40.07971 | 22450 ft | 468 kts | 38° |
| 2026-05-01 08:41 | 22.74571 | 40.10317 | 22872 ft | 471 kts | 38° |
| 2026-05-01 08:42 | 22.77033 | 40.12672 | 23310 ft | 474 kts | 38° |
| 2026-05-01 08:42 | 22.79507 | 40.15043 | 23761 ft | 476 kts | 38° |
| 2026-05-01 08:42 | 22.81992 | 40.17428 | 24193 ft | 478 kts | 38° |
| 2026-05-01 08:42 | 22.84489 | 40.19823 | 24541 ft | 482 kts | 38° |
| 2026-05-01 08:43 | 22.87016 | 40.22247 | 24814 ft | 488 kts | 38° |
| 2026-05-01 08:43 | 22.89577 | 40.24703 | 25156 ft | 493 kts | 38° |
| 2026-05-01 08:43 | 22.92150 | 40.27179 | 25515 ft | 496 kts | 38° |
| 2026-05-01 08:43 | 22.94739 | 40.29673 | 25838 ft | 500 kts | 38° |
| 2026-05-01 08:44 | 22.97345 | 40.32183 | 26097 ft | 503 kts | 38° |
| 2026-05-01 08:44 | 22.99978 | 40.34716 | 26361 ft | 508 kts | 38° |
| 2026-05-01 08:44 | 23.02627 | 40.37270 | 26652 ft | 511 kts | 38° |
| 2026-05-01 08:44 | 23.05292 | 40.39839 | 26928 ft | 515 kts | 38° |
| 2026-05-01 08:45 | 23.07979 | 40.42431 | 27211 ft | 518 kts | 38° |
| 2026-05-01 08:45 | 23.10683 | 40.45036 | 27507 ft | 521 kts | 38° |
| 2026-05-01 08:45 | 23.13361 | 40.47625 | 27781 ft | 524 kts | 38° |
| 2026-05-01 08:45 | 23.16092 | 40.50268 | 28021 ft | 528 kts | 38° |
| 2026-05-01 08:46 | 23.18840 | 40.52925 | 28227 ft | 531 kts | 38° |
| 2026-05-01 08:46 | 23.21610 | 40.55603 | 28484 ft | 534 kts | 38° |
| 2026-05-01 08:46 | 23.24344 | 40.58353 | 28745 ft | 539 kts | 43° |
| 2026-05-01 08:46 | 23.26773 | 40.61491 | 28977 ft | 545 kts | 52° |
| 2026-05-01 08:47 | 23.28831 | 40.64979 | 29176 ft | 551 kts | 59° |
| 2026-05-01 08:47 | 23.30496 | 40.68752 | 29371 ft | 556 kts | 68° |
| 2026-05-01 08:47 | 23.31845 | 40.72698 | 29594 ft | 558 kts | 69° |
| 2026-05-01 08:47 | 23.33163 | 40.76672 | 29872 ft | 559 kts | 69° |
| 2026-05-01 08:48 | 23.34483 | 40.80648 | 30222 ft | 558 kts | 69° |
| 2026-05-01 08:48 | 23.35817 | 40.84615 | 30553 ft | 558 kts | 69° |
| 2026-05-01 08:48 | 23.37168 | 40.88575 | 30820 ft | 559 kts | 69° |
| 2026-05-01 08:48 | 23.38538 | 40.92548 | 31011 ft | 562 kts | 69° |
| 2026-05-01 08:49 | 23.41311 | 41.00534 | 31079 ft | 564 kts | 69° |
| 2026-05-01 08:49 | 23.44060 | 41.08483 | 31064 ft | 558 kts | 69° |
| 2026-05-01 08:50 | 23.46789 | 41.16385 | 31078 ft | 557 kts | 69° |
| 2026-05-01 08:50 | 23.49508 | 41.24291 | 31078 ft | 558 kts | 69° |
| 2026-05-01 08:51 | 23.52224 | 41.32198 | 31074 ft | 558 kts | 69° |
| 2026-05-01 08:51 | 23.54935 | 41.40115 | 31080 ft | 558 kts | 69° |
| 2026-05-01 08:52 | 23.57654 | 41.48055 | 31071 ft | 559 kts | 69° |
| 2026-05-01 08:52 | 23.60361 | 41.55991 | 31064 ft | 559 kts | 69° |
| 2026-05-01 08:53 | 23.63067 | 41.63934 | 31075 ft | 558 kts | 69° |
| 2026-05-01 08:53 | 23.65768 | 41.71874 | 31072 ft | 558 kts | 69° |
| 2026-05-01 08:54 | 23.68428 | 41.79830 | 31073 ft | 559 kts | 70° |
| 2026-05-01 08:54 | 23.70934 | 41.87852 | 31045 ft | 558 kts | 71° |
| 2026-05-01 08:55 | 23.73438 | 41.95855 | 31043 ft | 556 kts | 70° |
| 2026-05-01 08:55 | 23.76013 | 42.03818 | 31046 ft | 556 kts | 69° |
| 2026-05-01 08:56 | 23.78736 | 42.11720 | 31047 ft | 556 kts | 69° |
| 2026-05-01 08:56 | 23.81468 | 42.19609 | 31047 ft | 555 kts | 69° |
| 2026-05-01 08:57 | 23.84168 | 42.27518 | 31048 ft | 556 kts | 69° |
| 2026-05-01 08:57 | 23.86856 | 42.35443 | 31050 ft | 557 kts | 69° |
| 2026-05-01 08:58 | 23.89539 | 42.43380 | 31039 ft | 557 kts | 69° |
| 2026-05-01 08:58 | 23.92235 | 42.51332 | 31042 ft | 559 kts | 69° |
| 2026-05-01 08:59 | 23.94929 | 42.59304 | 31037 ft | 560 kts | 69° |
| 2026-05-01 08:59 | 23.97618 | 42.67296 | 31038 ft | 560 kts | 69° |
| 2026-05-01 09:00 | 24.00284 | 42.75232 | 31035 ft | 560 kts | 69° |
| 2026-05-01 09:00 | 24.02894 | 42.83243 | 31019 ft | 558 kts | 75° |
| 2026-05-01 09:01 | 24.03575 | 42.87409 | 31026 ft | 556 kts | 87° |
| 2026-05-01 09:01 | 24.03608 | 42.91618 | 31038 ft | 553 kts | 97° |
| 2026-05-01 09:01 | 24.03081 | 42.95773 | 31020 ft | 549 kts | 108° |
| 2026-05-01 09:01 | 24.02005 | 42.99747 | 31045 ft | 545 kts | 111° |
| 2026-05-01 09:02 | 23.99703 | 43.07692 | 31030 ft | 550 kts | 111° |
| 2026-05-01 09:02 | 23.97461 | 43.15719 | 31035 ft | 554 kts | 111° |
| 2026-05-01 09:03 | 23.95262 | 43.23797 | 31015 ft | 555 kts | 110° |
| 2026-05-01 09:03 | 23.93075 | 43.31883 | 31025 ft | 554 kts | 110° |
| 2026-05-01 09:04 | 23.90887 | 43.39941 | 31023 ft | 552 kts | 110° |
| 2026-05-01 09:04 | 23.88692 | 43.47969 | 31023 ft | 550 kts | 111° |
| 2026-05-01 09:05 | 23.86486 | 43.55966 | 31021 ft | 549 kts | 111° |
| 2026-05-01 09:05 | 23.84290 | 43.63961 | 31033 ft | 550 kts | 111° |
| 2026-05-01 09:06 | 23.82077 | 43.71967 | 31034 ft | 551 kts | 111° |
| 2026-05-01 09:06 | 23.79864 | 43.79993 | 31031 ft | 552 kts | 111° |
| 2026-05-01 09:07 | 23.77768 | 43.88077 | 31013 ft | 556 kts | 106° |
| 2026-05-01 09:07 | 23.76705 | 43.96464 | 31022 ft | 560 kts | 97° |
| 2026-05-01 09:08 | 23.76152 | 44.04953 | 31021 ft | 562 kts | 97° |
| 2026-05-01 09:08 | 23.75684 | 44.12017 | 31016 ft | 561 kts | 97° |
| 2026-05-01 09:09 | 23.75064 | 44.20480 | 31008 ft | 559 kts | 98° |
| 2026-05-01 09:09 | 23.74404 | 44.28928 | 31034 ft | 558 kts | 97° |
| 2026-05-01 09:10 | 23.73757 | 44.37364 | 31021 ft | 557 kts | 97° |
| 2026-05-01 09:10 | 23.73093 | 44.45827 | 31016 ft | 556 kts | 97° |
| 2026-05-01 09:11 | 23.72459 | 44.54211 | 31020 ft | 554 kts | 97° |
| 2026-05-01 09:11 | 23.71803 | 44.62576 | 31016 ft | 553 kts | 97° |
| 2026-05-01 09:12 | 23.71147 | 44.70937 | 31007 ft | 553 kts | 97° |
| 2026-05-01 09:12 | 23.70482 | 44.79298 | 31023 ft | 554 kts | 97° |
| 2026-05-01 09:13 | 23.69819 | 44.87674 | 31027 ft | 555 kts | 97° |
| 2026-05-01 09:13 | 23.69147 | 44.96076 | 31023 ft | 555 kts | 97° |
| 2026-05-01 09:14 | 23.68462 | 45.04482 | 31024 ft | 557 kts | 98° |
| 2026-05-01 09:14 | 23.67767 | 45.12919 | 31027 ft | 560 kts | 97° |
| 2026-05-01 09:15 | 23.67080 | 45.21383 | 31019 ft | 561 kts | 98° |
| 2026-05-01 09:15 | 23.66393 | 45.29812 | 31022 ft | 563 kts | 97° |
| 2026-05-01 09:16 | 23.65683 | 45.38369 | 31018 ft | 562 kts | 98° |
| 2026-05-01 09:17 | 23.64606 | 45.51097 | 31006 ft | 561 kts | 98° |
| 2026-05-01 09:17 | 23.63550 | 45.63746 | 30999 ft | 558 kts | 98° |
| 2026-05-01 09:18 | 23.62479 | 45.76385 | 31018 ft | 559 kts | 98° |
| 2026-05-01 09:19 | 23.61383 | 45.89065 | 31025 ft | 565 kts | 98° |
| 2026-05-01 09:20 | 23.60276 | 46.01877 | 31014 ft | 566 kts | 98° |
| 2026-05-01 09:21 | 23.58781 | 46.18930 | 31021 ft | 564 kts | 98° |
| 2026-05-01 09:21 | 23.57654 | 46.31654 | 31004 ft | 561 kts | 98° |
| 2026-05-01 09:22 | 23.56150 | 46.48508 | 31016 ft | 558 kts | 98° |
| 2026-05-01 09:23 | 23.55013 | 46.61139 | 31019 ft | 558 kts | 98° |
| 2026-05-01 09:24 | 23.53830 | 46.73787 | 31014 ft | 559 kts | 99° |
| 2026-05-01 09:25 | 23.52283 | 46.90668 | 31017 ft | 559 kts | 98° |
| 2026-05-01 09:26 | 23.51065 | 47.03307 | 31017 ft | 559 kts | 99° |
| 2026-05-01 09:26 | 23.49841 | 47.15937 | 31023 ft | 560 kts | 99° |
| 2026-05-01 09:27 | 23.48646 | 47.28608 | 31019 ft | 562 kts | 99° |
| 2026-05-01 09:28 | 23.47823 | 47.37064 | 31021 ft | 561 kts | 99° |
| 2026-05-01 09:28 | 23.47003 | 47.45511 | 31017 ft | 561 kts | 99° |
| 2026-05-01 09:29 | 23.45766 | 47.58174 | 31013 ft | 559 kts | 99° |
| 2026-05-01 09:30 | 23.44519 | 47.70772 | 31021 ft | 558 kts | 99° |
| 2026-05-01 09:30 | 23.43301 | 47.83387 | 31014 ft | 559 kts | 99° |
| 2026-05-01 09:31 | 23.42466 | 47.91805 | 31000 ft | 559 kts | 99° |
| 2026-05-01 09:32 | 23.41209 | 48.04410 | 31017 ft | 559 kts | 99° |
| 2026-05-01 09:32 | 23.39938 | 48.17009 | 31013 ft | 557 kts | 100° |
| 2026-05-01 09:33 | 23.39082 | 48.25405 | 31012 ft | 559 kts | 99° |
| 2026-05-01 09:33 | 23.37490 | 48.33593 | 31005 ft | 549 kts | 114° |
| 2026-05-01 09:34 | 23.36071 | 48.37436 | 31006 ft | 545 kts | 120° |
| 2026-05-01 09:34 | 23.30230 | 48.47870 | 31004 ft | 537 kts | 129° |
| 2026-05-01 09:35 | 23.24126 | 48.58125 | 30992 ft | 540 kts | 128° |
| 2026-05-01 09:36 | 23.20083 | 48.64999 | 30986 ft | 539 kts | 128° |
| 2026-05-01 09:36 | 23.16058 | 48.71851 | 30990 ft | 538 kts | 128° |
| 2026-05-01 09:37 | 23.12048 | 48.78697 | 30989 ft | 537 kts | 128° |
| 2026-05-01 09:37 | 23.06017 | 48.88934 | 30976 ft | 535 kts | 128° |
| 2026-05-01 09:38 | 22.99995 | 48.99131 | 30984 ft | 534 kts | 128° |
| 2026-05-01 09:39 | 22.93966 | 49.09295 | 30986 ft | 533 kts | 128° |
| 2026-05-01 09:39 | 22.89972 | 49.16025 | 30982 ft | 534 kts | 128° |
| 2026-05-01 09:40 | 22.83910 | 49.26228 | 30972 ft | 534 kts | 128° |
| 2026-05-01 09:41 | 22.79889 | 49.32984 | 30973 ft | 533 kts | 128° |
| 2026-05-01 09:41 | 22.73854 | 49.43106 | 30975 ft | 533 kts | 128° |
| 2026-05-01 09:42 | 22.69829 | 49.49843 | 30971 ft | 532 kts | 128° |
| 2026-05-01 09:43 | 22.61803 | 49.63254 | 30975 ft | 530 kts | 128° |
| 2026-05-01 09:43 | 22.57793 | 49.69949 | 30964 ft | 530 kts | 128° |
| 2026-05-01 09:44 | 22.51773 | 49.79971 | 30962 ft | 529 kts | 128° |
| 2026-05-01 09:45 | 22.47766 | 49.86627 | 30958 ft | 527 kts | 128° |
| 2026-05-01 09:45 | 22.41762 | 49.96570 | 30964 ft | 526 kts | 128° |
| 2026-05-01 09:46 | 22.37766 | 50.03184 | 30919 ft | 526 kts | 128° |
| 2026-05-01 09:46 | 22.33765 | 50.09793 | 30918 ft | 526 kts | 128° |
| 2026-05-01 09:47 | 22.29764 | 50.16401 | 30915 ft | 525 kts | 128° |
| 2026-05-01 09:47 | 22.25762 | 50.22992 | 30918 ft | 525 kts | 128° |
| 2026-05-01 09:48 | 22.21755 | 50.29598 | 30916 ft | 526 kts | 128° |
| 2026-05-01 09:48 | 22.17745 | 50.36202 | 30914 ft | 526 kts | 128° |
| 2026-05-01 09:49 | 22.13730 | 50.42801 | 30908 ft | 526 kts | 128° |
| 2026-05-01 09:49 | 22.09709 | 50.49397 | 30907 ft | 526 kts | 128° |
| 2026-05-01 09:50 | 22.06366 | 50.54878 | 30908 ft | 527 kts | 128° |
| 2026-05-01 09:50 | 22.02415 | 50.61544 | 31046 ft | 533 kts | 122° |
| 2026-05-01 09:51 | 22.00933 | 50.65219 | 31274 ft | 540 kts | 112° |
| 2026-05-01 09:51 | 21.99944 | 50.69121 | 31669 ft | 540 kts | 104° |
| 2026-05-01 09:51 | 21.99462 | 50.73126 | 32123 ft | 538 kts | 95° |
| 2026-05-01 09:51 | 21.99325 | 50.77142 | 32566 ft | 535 kts | 94° |
| 2026-05-01 09:52 | 21.99214 | 50.81141 | 32834 ft | 534 kts | 94° |
| 2026-05-01 09:52 | 21.99092 | 50.85143 | 32883 ft | 536 kts | 94° |
| 2026-05-01 09:52 | 21.98787 | 50.93182 | 32900 ft | 537 kts | 95° |
| 2026-05-01 09:53 | 21.98432 | 51.01191 | 32916 ft | 534 kts | 95° |
| 2026-05-01 09:53 | 21.98063 | 51.09173 | 32899 ft | 533 kts | 95° |
| 2026-05-01 09:54 | 21.97699 | 51.17157 | 32902 ft | 532 kts | 95° |
| 2026-05-01 09:54 | 21.97333 | 51.25115 | 32907 ft | 533 kts | 95° |
| 2026-05-01 09:55 | 21.96961 | 51.33090 | 32918 ft | 533 kts | 95° |
| 2026-05-01 09:55 | 21.96590 | 51.41075 | 32904 ft | 534 kts | 95° |
| 2026-05-01 09:56 | 21.96205 | 51.49073 | 32894 ft | 535 kts | 95° |
| 2026-05-01 09:56 | 21.95831 | 51.57084 | 32899 ft | 536 kts | 95° |
| 2026-05-01 09:57 | 21.95446 | 51.65115 | 32903 ft | 538 kts | 95° |
| 2026-05-01 09:57 | 21.95055 | 51.73160 | 32885 ft | 538 kts | 95° |
| 2026-05-01 09:58 | 21.94659 | 51.81214 | 32902 ft | 539 kts | 95° |
| 2026-05-01 09:58 | 21.94257 | 51.89275 | 32887 ft | 539 kts | 95° |
| 2026-05-01 09:59 | 21.93856 | 51.97329 | 32893 ft | 538 kts | 95° |
| 2026-05-01 09:59 | 21.93449 | 52.05370 | 32897 ft | 538 kts | 95° |
| 2026-05-01 10:00 | 21.93042 | 52.13362 | 32885 ft | 538 kts | 95° |
| 2026-05-01 10:00 | 21.92627 | 52.21413 | 32884 ft | 538 kts | 95° |
| 2026-05-01 10:01 | 21.92209 | 52.29435 | 32885 ft | 537 kts | 95° |
| 2026-05-01 10:01 | 21.91780 | 52.37462 | 32877 ft | 537 kts | 95° |
| 2026-05-01 10:02 | 21.91356 | 52.45470 | 32883 ft | 536 kts | 95° |
| 2026-05-01 10:02 | 21.90932 | 52.53474 | 32879 ft | 535 kts | 95° |
| 2026-05-01 10:03 | 21.90495 | 52.61463 | 32878 ft | 534 kts | 95° |
| 2026-05-01 10:03 | 21.90057 | 52.69444 | 32881 ft | 534 kts | 95° |
| 2026-05-01 10:04 | 21.89622 | 52.77419 | 32877 ft | 533 kts | 95° |
| 2026-05-01 10:04 | 21.89175 | 52.85383 | 32875 ft | 533 kts | 95° |
| 2026-05-01 10:05 | 21.88732 | 52.93332 | 32866 ft | 531 kts | 95° |
| 2026-05-01 10:05 | 21.88280 | 53.01273 | 32876 ft | 531 kts | 95° |
| 2026-05-01 10:06 | 21.87817 | 53.09218 | 32869 ft | 532 kts | 95° |
| 2026-05-01 10:06 | 21.87365 | 53.17152 | 32871 ft | 531 kts | 95° |
| 2026-05-01 10:07 | 21.86909 | 53.25090 | 32870 ft | 531 kts | 95° |
| 2026-05-01 10:07 | 21.86444 | 53.33023 | 32872 ft | 531 kts | 95° |
| 2026-05-01 10:08 | 21.85740 | 53.44903 | 32858 ft | 529 kts | 95° |
| 2026-05-01 10:09 | 21.85272 | 53.52754 | 32862 ft | 529 kts | 95° |
| 2026-05-01 10:09 | 21.84792 | 53.60658 | 32863 ft | 530 kts | 95° |
| 2026-05-01 10:10 | 21.84313 | 53.68578 | 32862 ft | 531 kts | 95° |
| 2026-05-01 10:10 | 21.83582 | 53.80461 | 32862 ft | 531 kts | 95° |
| 2026-05-01 10:11 | 21.83093 | 53.88395 | 32856 ft | 531 kts | 95° |
| 2026-05-01 10:11 | 21.82599 | 53.96326 | 32861 ft | 531 kts | 95° |
| 2026-05-01 10:12 | 21.82102 | 54.04268 | 32864 ft | 532 kts | 95° |
| 2026-05-01 10:13 | 21.81340 | 54.16181 | 32863 ft | 532 kts | 95° |
| 2026-05-01 10:13 | 21.80833 | 54.24116 | 32864 ft | 531 kts | 95° |
| 2026-05-01 10:14 | 21.80067 | 54.35997 | 32849 ft | 530 kts | 95° |
| 2026-05-01 10:14 | 21.79550 | 54.43894 | 32849 ft | 529 kts | 95° |
| 2026-05-01 10:15 | 21.79031 | 54.51791 | 32850 ft | 529 kts | 95° |
| 2026-05-01 10:15 | 21.78509 | 54.59678 | 32844 ft | 528 kts | 95° |
| 2026-05-01 10:16 | 21.77973 | 54.67561 | 32841 ft | 528 kts | 95° |
| 2026-05-01 10:17 | 21.77163 | 54.79385 | 32855 ft | 529 kts | 95° |
| 2026-05-01 10:17 | 21.76349 | 54.91206 | 32855 ft | 528 kts | 95° |
| 2026-05-01 10:18 | 21.75525 | 55.03019 | 32852 ft | 528 kts | 95° |
| 2026-05-01 10:19 | 21.74979 | 55.10888 | 32855 ft | 528 kts | 95° |
| 2026-05-01 10:19 | 21.74421 | 55.18752 | 32849 ft | 528 kts | 95° |
| 2026-05-01 10:20 | 21.73595 | 55.30561 | 32852 ft | 528 kts | 95° |
| 2026-05-01 10:20 | 21.73039 | 55.38435 | 32853 ft | 528 kts | 95° |
| 2026-05-01 10:21 | 21.72194 | 55.50238 | 32854 ft | 528 kts | 95° |
| 2026-05-01 10:22 | 21.71383 | 55.62036 | 32850 ft | 527 kts | 94° |
| 2026-05-01 10:23 | 21.70722 | 55.73856 | 32834 ft | 528 kts | 94° |
| 2026-05-01 10:23 | 21.70021 | 55.85680 | 32833 ft | 529 kts | 94° |
| 2026-05-01 10:24 | 21.69093 | 56.01479 | 32834 ft | 530 kts | 94° |
| 2026-05-01 10:25 | 21.68143 | 56.17305 | 32834 ft | 530 kts | 94° |
| 2026-05-01 10:26 | 21.67663 | 56.25218 | 32847 ft | 530 kts | 94° |
| 2026-05-01 10:27 | 21.66688 | 56.41015 | 32844 ft | 529 kts | 94° |
| 2026-05-01 10:28 | 21.65955 | 56.52815 | 32837 ft | 527 kts | 94° |
| 2026-05-01 10:28 | 21.65213 | 56.64582 | 32830 ft | 526 kts | 94° |
| 2026-05-01 10:29 | 21.64458 | 56.76345 | 32809 ft | 526 kts | 94° |
| 2026-05-01 10:30 | 21.63459 | 56.91960 | 32807 ft | 525 kts | 94° |
| 2026-05-01 10:31 | 21.62431 | 57.07603 | 32816 ft | 524 kts | 94° |
| 2026-05-01 10:32 | 21.61653 | 57.19314 | 32816 ft | 524 kts | 94° |
| 2026-05-01 10:33 | 21.60609 | 57.34913 | 32814 ft | 523 kts | 94° |
| 2026-05-01 10:34 | 21.59812 | 57.46609 | 32814 ft | 522 kts | 94° |
| 2026-05-01 10:34 | 21.59279 | 57.54388 | 32813 ft | 522 kts | 94° |
| 2026-05-01 10:35 | 21.58375 | 57.66052 | 32814 ft | 522 kts | 98° |
| 2026-05-01 10:35 | 21.56694 | 57.73622 | 32807 ft | 522 kts | 108° |
| 2026-05-01 10:36 | 21.53812 | 57.83529 | 32801 ft | 523 kts | 108° |
| 2026-05-01 10:37 | 21.51678 | 57.90993 | 32806 ft | 523 kts | 107° |
| 2026-05-01 10:37 | 21.48509 | 58.02220 | 32804 ft | 524 kts | 107° |
| 2026-05-01 10:38 | 21.46397 | 58.09701 | 32808 ft | 523 kts | 107° |
| 2026-05-01 10:38 | 21.44284 | 58.17172 | 32815 ft | 523 kts | 107° |
| 2026-05-01 10:39 | 21.42164 | 58.24637 | 32813 ft | 523 kts | 108° |
| 2026-05-01 10:39 | 21.40037 | 58.32095 | 32817 ft | 522 kts | 108° |
| 2026-05-01 10:40 | 21.37920 | 58.39542 | 32826 ft | 522 kts | 108° |
| 2026-05-01 10:40 | 21.35799 | 58.46990 | 32822 ft | 522 kts | 108° |
| 2026-05-01 10:41 | 21.33668 | 58.54426 | 32824 ft | 521 kts | 108° |
| 2026-05-01 10:42 | 21.30467 | 58.65577 | 32823 ft | 522 kts | 108° |
| 2026-05-01 10:42 | 21.28338 | 58.73015 | 32825 ft | 522 kts | 108° |
| 2026-05-01 10:43 | 21.26199 | 58.80451 | 32824 ft | 521 kts | 108° |
| 2026-05-01 10:43 | 21.24052 | 58.87870 | 32828 ft | 521 kts | 108° |
| 2026-05-01 10:44 | 21.21917 | 58.95289 | 32825 ft | 521 kts | 108° |
| 2026-05-01 10:44 | 21.19776 | 59.02708 | 32824 ft | 522 kts | 108° |
| 2026-05-01 10:45 | 21.17628 | 59.10135 | 32825 ft | 522 kts | 108° |
| 2026-05-01 10:45 | 21.15474 | 59.17558 | 32823 ft | 522 kts | 108° |
| 2026-05-01 10:46 | 21.13319 | 59.24980 | 32824 ft | 522 kts | 108° |
| 2026-05-01 10:46 | 21.11162 | 59.32401 | 32824 ft | 522 kts | 108° |
| 2026-05-01 10:47 | 21.09000 | 59.39818 | 32824 ft | 522 kts | 109° |
| 2026-05-01 10:47 | 21.06832 | 59.47242 | 32825 ft | 522 kts | 109° |
| 2026-05-01 10:48 | 21.04661 | 59.54664 | 32826 ft | 523 kts | 109° |
| 2026-05-01 10:48 | 21.02482 | 59.62091 | 32824 ft | 522 kts | 109° |
| 2026-05-01 10:49 | 21.00316 | 59.69498 | 32826 ft | 522 kts | 109° |
| 2026-05-01 10:49 | 20.98092 | 59.76890 | 32825 ft | 521 kts | 109° |
| 2026-05-01 10:50 | 20.95832 | 59.84265 | 32825 ft | 521 kts | 109° |
| 2026-05-01 10:50 | 20.93574 | 59.91638 | 32822 ft | 522 kts | 110° |
| 2026-05-01 10:51 | 20.91323 | 59.99007 | 32824 ft | 522 kts | 109° |
| 2026-05-01 10:51 | 20.89064 | 60.06399 | 32821 ft | 522 kts | 110° |
| 2026-05-01 10:52 | 20.86808 | 60.13772 | 32825 ft | 522 kts | 110° |
| 2026-05-01 10:52 | 20.84552 | 60.21145 | 32828 ft | 522 kts | 110° |
| 2026-05-01 10:53 | 20.82298 | 60.28507 | 32828 ft | 521 kts | 110° |
| 2026-05-01 10:53 | 20.80027 | 60.35868 | 32825 ft | 521 kts | 110° |
| 2026-05-01 10:54 | 20.77762 | 60.43237 | 32827 ft | 522 kts | 110° |
| 2026-05-01 10:54 | 20.75481 | 60.50604 | 32822 ft | 522 kts | 110° |
| 2026-05-01 10:55 | 20.73202 | 60.57964 | 32824 ft | 522 kts | 110° |
| 2026-05-01 10:55 | 20.70946 | 60.65260 | 32821 ft | 521 kts | 110° |
| 2026-05-01 10:56 | 20.68652 | 60.72658 | 32823 ft | 521 kts | 110° |
| 2026-05-01 10:56 | 20.66370 | 60.80000 | 32807 ft | 521 kts | 110° |
| 2026-05-01 10:57 | 20.64086 | 60.87348 | 32806 ft | 521 kts | 110° |
| 2026-05-01 10:57 | 20.61612 | 60.94560 | 32809 ft | 520 kts | 116° |
| 2026-05-01 10:58 | 20.58097 | 61.01266 | 32806 ft | 517 kts | 125° |
| 2026-05-01 10:58 | 20.54173 | 61.07704 | 32805 ft | 518 kts | 125° |
| 2026-05-01 10:59 | 20.50264 | 61.14153 | 32806 ft | 518 kts | 125° |
| 2026-05-01 10:59 | 20.46375 | 61.20627 | 32805 ft | 518 kts | 124° |
| 2026-05-01 11:00 | 20.42493 | 61.27112 | 32807 ft | 519 kts | 124° |
| 2026-05-01 11:00 | 20.38612 | 61.33597 | 32795 ft | 519 kts | 124° |
| 2026-05-01 11:01 | 20.34727 | 61.40080 | 32795 ft | 518 kts | 124° |
| 2026-05-01 11:01 | 20.30843 | 61.46536 | 32795 ft | 517 kts | 125° |
| 2026-05-01 11:02 | 20.26958 | 61.52987 | 32794 ft | 517 kts | 125° |
| 2026-05-01 11:02 | 20.23074 | 61.59426 | 32799 ft | 517 kts | 124° |
| 2026-05-01 11:03 | 20.19194 | 61.65866 | 32792 ft | 517 kts | 124° |
| 2026-05-01 11:03 | 20.15307 | 61.72313 | 32796 ft | 517 kts | 124° |
| 2026-05-01 11:04 | 20.11411 | 61.78755 | 32787 ft | 518 kts | 124° |
| 2026-05-01 11:04 | 20.07515 | 61.85208 | 32787 ft | 518 kts | 124° |
| 2026-05-01 11:05 | 20.03610 | 61.91659 | 32788 ft | 519 kts | 125° |
| 2026-05-01 11:05 | 19.99700 | 61.98103 | 32785 ft | 519 kts | 125° |
| 2026-05-01 11:06 | 19.95788 | 62.04540 | 32778 ft | 518 kts | 125° |
| 2026-05-01 11:06 | 19.91878 | 62.10981 | 32781 ft | 519 kts | 125° |
| 2026-05-01 11:07 | 19.86008 | 62.20639 | 32781 ft | 519 kts | 125° |
| 2026-05-01 11:07 | 19.82086 | 62.27072 | 32775 ft | 518 kts | 125° |
| 2026-05-01 11:08 | 19.78167 | 62.33490 | 32778 ft | 518 kts | 125° |
| 2026-05-01 11:09 | 19.72294 | 62.43108 | 32776 ft | 518 kts | 124° |
| 2026-05-01 11:09 | 19.68378 | 62.49511 | 32773 ft | 516 kts | 124° |
| 2026-05-01 11:10 | 19.62523 | 62.59083 | 32781 ft | 515 kts | 124° |
| 2026-05-01 11:10 | 19.58611 | 62.65453 | 32776 ft | 516 kts | 124° |
| 2026-05-01 11:11 | 19.54698 | 62.71825 | 32781 ft | 516 kts | 124° |
| 2026-05-01 11:11 | 19.50791 | 62.78184 | 32775 ft | 516 kts | 124° |
| 2026-05-01 11:12 | 19.46895 | 62.84521 | 32782 ft | 515 kts | 124° |
| 2026-05-01 11:12 | 19.42982 | 62.90888 | 32776 ft | 516 kts | 124° |
| 2026-05-01 11:13 | 19.39064 | 62.97238 | 32786 ft | 514 kts | 124° |
| 2026-05-01 11:13 | 19.35150 | 63.03574 | 32771 ft | 514 kts | 124° |
| 2026-05-01 11:14 | 19.31240 | 63.09904 | 32775 ft | 513 kts | 124° |
| 2026-05-01 11:14 | 19.27336 | 63.16229 | 32781 ft | 513 kts | 124° |
| 2026-05-01 11:15 | 19.23433 | 63.22534 | 32774 ft | 513 kts | 124° |
| 2026-05-01 11:15 | 19.19519 | 63.28849 | 32786 ft | 512 kts | 124° |
| 2026-05-01 11:16 | 19.15616 | 63.35137 | 32821 ft | 512 kts | 124° |
| 2026-05-01 11:16 | 19.11708 | 63.41428 | 32821 ft | 511 kts | 124° |
| 2026-05-01 11:17 | 19.07808 | 63.47716 | 32827 ft | 512 kts | 124° |
| 2026-05-01 11:17 | 19.03889 | 63.54011 | 32825 ft | 513 kts | 124° |
| 2026-05-01 11:18 | 18.99965 | 63.60312 | 32825 ft | 513 kts | 124° |
| 2026-05-01 11:18 | 18.96041 | 63.66609 | 32823 ft | 513 kts | 124° |
| 2026-05-01 11:19 | 18.92114 | 63.72897 | 32822 ft | 513 kts | 124° |
| 2026-05-01 11:19 | 18.88187 | 63.79187 | 32821 ft | 513 kts | 124° |
| 2026-05-01 11:20 | 18.84266 | 63.85462 | 32824 ft | 511 kts | 124° |
| 2026-05-01 11:20 | 18.81015 | 63.90661 | 32821 ft | 509 kts | 124° |
| 2026-05-01 11:21 | 18.77111 | 63.96896 | 32827 ft | 509 kts | 124° |
| 2026-05-01 11:21 | 18.73205 | 64.03136 | 32825 ft | 509 kts | 124° |
| 2026-05-01 11:22 | 18.69292 | 64.09374 | 32825 ft | 510 kts | 124° |
| 2026-05-01 11:22 | 18.65379 | 64.15603 | 32820 ft | 509 kts | 124° |
| 2026-05-01 11:23 | 18.61466 | 64.21830 | 32825 ft | 510 kts | 124° |
| 2026-05-01 11:23 | 18.57540 | 64.28064 | 32825 ft | 510 kts | 124° |
| 2026-05-01 11:24 | 18.53609 | 64.34303 | 32825 ft | 511 kts | 124° |
| 2026-05-01 11:25 | 18.47701 | 64.43668 | 32824 ft | 512 kts | 124° |
| 2026-05-01 11:25 | 18.41799 | 64.53024 | 32823 ft | 511 kts | 124° |
| 2026-05-01 11:26 | 18.35899 | 64.62352 | 32824 ft | 509 kts | 124° |
| 2026-05-01 11:27 | 18.31965 | 64.68559 | 32821 ft | 510 kts | 124° |
| 2026-05-01 11:27 | 18.28035 | 64.74766 | 32823 ft | 510 kts | 124° |
| 2026-05-01 11:28 | 18.24103 | 64.80975 | 32823 ft | 510 kts | 124° |
| 2026-05-01 11:28 | 18.20161 | 64.87173 | 32823 ft | 509 kts | 124° |
| 2026-05-01 11:29 | 18.14256 | 64.96455 | 32824 ft | 510 kts | 124° |
| 2026-05-01 11:30 | 18.08334 | 65.05753 | 32826 ft | 511 kts | 124° |
| 2026-05-01 11:30 | 18.04381 | 65.11962 | 32823 ft | 512 kts | 124° |
| 2026-05-01 11:31 | 18.00416 | 65.18176 | 32825 ft | 512 kts | 125° |
| 2026-05-01 11:31 | 17.96477 | 65.24339 | 32825 ft | 510 kts | 124° |
| 2026-05-01 11:32 | 17.92525 | 65.30526 | 32819 ft | 509 kts | 124° |
| 2026-05-01 11:32 | 17.88573 | 65.36700 | 32824 ft | 509 kts | 124° |
| 2026-05-01 11:33 | 17.84625 | 65.42874 | 32831 ft | 510 kts | 125° |
| 2026-05-01 11:33 | 17.80670 | 65.49042 | 32835 ft | 509 kts | 125° |
| 2026-05-01 11:34 | 17.76703 | 65.55204 | 32833 ft | 510 kts | 125° |
| 2026-05-01 11:34 | 17.72751 | 65.61367 | 32835 ft | 508 kts | 125° |
| 2026-05-01 11:35 | 17.68801 | 65.67521 | 32833 ft | 509 kts | 125° |
| 2026-05-01 11:35 | 17.64846 | 65.73669 | 32834 ft | 508 kts | 125° |
| 2026-05-01 11:36 | 17.60919 | 65.79777 | 32834 ft | 509 kts | 124° |
| 2026-05-01 11:36 | 17.57060 | 65.85987 | 32832 ft | 509 kts | 123° |
| 2026-05-01 11:37 | 17.53240 | 65.92240 | 32832 ft | 509 kts | 123° |
| 2026-05-01 11:37 | 17.49404 | 65.98486 | 32834 ft | 510 kts | 124° |
| 2026-05-01 11:38 | 17.45555 | 66.04721 | 32831 ft | 510 kts | 124° |
| 2026-05-01 11:38 | 17.41696 | 66.10959 | 32834 ft | 510 kts | 124° |
| 2026-05-01 11:39 | 17.37838 | 66.17195 | 32834 ft | 510 kts | 124° |
| 2026-05-01 11:39 | 17.33977 | 66.23424 | 32830 ft | 510 kts | 124° |
| 2026-05-01 11:40 | 17.30122 | 66.29637 | 32832 ft | 509 kts | 124° |
| 2026-05-01 11:40 | 17.26269 | 66.35842 | 32833 ft | 508 kts | 124° |
| 2026-05-01 11:41 | 17.22418 | 66.42041 | 32835 ft | 508 kts | 124° |
| 2026-05-01 11:41 | 17.18570 | 66.48236 | 32847 ft | 508 kts | 124° |
| 2026-05-01 11:42 | 17.14720 | 66.54416 | 32835 ft | 507 kts | 124° |
| 2026-05-01 11:42 | 17.10876 | 66.60586 | 32845 ft | 507 kts | 124° |
| 2026-05-01 11:43 | 17.07024 | 66.66759 | 32845 ft | 507 kts | 124° |
| 2026-05-01 11:43 | 17.03179 | 66.72922 | 32844 ft | 506 kts | 124° |
| 2026-05-01 11:44 | 16.97402 | 66.82167 | 32835 ft | 506 kts | 124° |
| 2026-05-01 11:44 | 16.93552 | 66.88326 | 32845 ft | 506 kts | 124° |
| 2026-05-01 11:45 | 16.89724 | 66.94441 | 32843 ft | 506 kts | 124° |
| 2026-05-01 11:45 | 16.85871 | 67.00587 | 32835 ft | 505 kts | 124° |
| 2026-05-01 11:46 | 16.82026 | 67.06717 | 32843 ft | 505 kts | 124° |
| 2026-05-01 11:46 | 16.78177 | 67.12848 | 32845 ft | 504 kts | 124° |
| 2026-05-01 11:47 | 16.74326 | 67.18975 | 32818 ft | 505 kts | 124° |
| 2026-05-01 11:47 | 16.70470 | 67.25105 | 32816 ft | 505 kts | 124° |
| 2026-05-01 11:48 | 16.66616 | 67.31237 | 32814 ft | 505 kts | 124° |
| 2026-05-01 11:48 | 16.62759 | 67.37364 | 32814 ft | 505 kts | 124° |
| 2026-05-01 11:49 | 16.58903 | 67.43486 | 32815 ft | 505 kts | 124° |
| 2026-05-01 11:49 | 16.55044 | 67.49595 | 32814 ft | 504 kts | 124° |
| 2026-05-01 11:50 | 16.51189 | 67.55694 | 32816 ft | 504 kts | 124° |
| 2026-05-01 11:50 | 16.47340 | 67.61782 | 32816 ft | 503 kts | 124° |
| 2026-05-01 11:51 | 16.43490 | 67.67868 | 32823 ft | 503 kts | 124° |
| 2026-05-01 11:51 | 16.39644 | 67.73945 | 32825 ft | 502 kts | 124° |
| 2026-05-01 11:52 | 16.35797 | 67.80013 | 32825 ft | 503 kts | 124° |
| 2026-05-01 11:52 | 16.31948 | 67.86088 | 32823 ft | 502 kts | 124° |
| 2026-05-01 11:53 | 16.28098 | 67.92156 | 32823 ft | 502 kts | 124° |
| 2026-05-01 11:53 | 16.24254 | 67.98221 | 32824 ft | 502 kts | 124° |
| 2026-05-01 11:54 | 16.20434 | 68.04298 | 32823 ft | 502 kts | 124° |
| 2026-05-01 11:54 | 16.16620 | 68.10371 | 32821 ft | 501 kts | 124° |
| 2026-05-01 11:55 | 16.12803 | 68.16433 | 32826 ft | 501 kts | 124° |
| 2026-05-01 11:55 | 16.08984 | 68.22490 | 32834 ft | 501 kts | 124° |
| 2026-05-01 11:56 | 16.05164 | 68.28544 | 32833 ft | 501 kts | 124° |
| 2026-05-01 11:56 | 16.01333 | 68.34607 | 32845 ft | 502 kts | 124° |
| 2026-05-01 11:57 | 15.98144 | 68.39655 | 32844 ft | 503 kts | 124° |
| 2026-05-01 11:57 | 15.93658 | 68.46747 | 32836 ft | 502 kts | 124° |
| 2026-05-01 11:58 | 15.89821 | 68.52817 | 32846 ft | 502 kts | 124° |
| 2026-05-01 11:59 | 15.84058 | 68.61905 | 32845 ft | 502 kts | 124° |
| 2026-05-01 11:59 | 15.80218 | 68.67950 | 32846 ft | 500 kts | 124° |
| 2026-05-01 12:00 | 15.74484 | 68.76985 | 32852 ft | 499 kts | 124° |
| 2026-05-01 12:01 | 15.68749 | 68.86008 | 32853 ft | 499 kts | 124° |
| 2026-05-01 12:01 | 15.64917 | 68.92025 | 32852 ft | 500 kts | 124° |
| 2026-05-01 12:02 | 15.61109 | 68.98004 | 32851 ft | 501 kts | 124° |
| 2026-05-01 12:02 | 15.57266 | 69.04033 | 32852 ft | 501 kts | 124° |
| 2026-05-01 12:03 | 15.53422 | 69.10053 | 32854 ft | 500 kts | 124° |
| 2026-05-01 12:03 | 15.49580 | 69.16067 | 32852 ft | 500 kts | 124° |
| 2026-05-01 12:04 | 15.45743 | 69.22076 | 32855 ft | 499 kts | 124° |
| 2026-05-01 12:04 | 15.41921 | 69.28059 | 32853 ft | 497 kts | 124° |
| 2026-05-01 12:05 | 15.38098 | 69.34039 | 32863 ft | 498 kts | 124° |
| 2026-05-01 12:05 | 15.32335 | 69.43017 | 32868 ft | 501 kts | 123° |
| 2026-05-01 12:06 | 15.28483 | 69.49032 | 32867 ft | 501 kts | 124° |
| 2026-05-01 12:06 | 15.24623 | 69.55049 | 32864 ft | 501 kts | 124° |
| 2026-05-01 12:07 | 15.20766 | 69.61048 | 32861 ft | 500 kts | 124° |
| 2026-05-01 12:07 | 15.16917 | 69.67047 | 32858 ft | 499 kts | 124° |
| 2026-05-01 12:08 | 15.13071 | 69.73023 | 32868 ft | 498 kts | 124° |
| 2026-05-01 12:08 | 15.09885 | 69.77985 | 32870 ft | 498 kts | 123° |
| 2026-05-01 12:09 | 15.06084 | 69.83970 | 32872 ft | 497 kts | 123° |
| 2026-05-01 12:09 | 15.02294 | 69.89955 | 32869 ft | 497 kts | 123° |
| 2026-05-01 12:10 | 14.96614 | 69.98902 | 32871 ft | 496 kts | 124° |
| 2026-05-01 12:11 | 14.90921 | 70.07838 | 32868 ft | 497 kts | 123° |
| 2026-05-01 12:11 | 14.87122 | 70.13797 | 32873 ft | 497 kts | 123° |
| 2026-05-01 12:12 | 14.83316 | 70.19760 | 32869 ft | 497 kts | 123° |
| 2026-05-01 12:12 | 14.79514 | 70.25724 | 32868 ft | 497 kts | 124° |
| 2026-05-01 12:13 | 14.75710 | 70.31673 | 32878 ft | 496 kts | 123° |
| 2026-05-01 12:13 | 14.71912 | 70.37622 | 32872 ft | 496 kts | 123° |
| 2026-05-01 12:14 | 14.68114 | 70.43571 | 32875 ft | 497 kts | 123° |
| 2026-05-01 12:14 | 14.64309 | 70.49514 | 32869 ft | 496 kts | 123° |
| 2026-05-01 12:15 | 14.60530 | 70.55408 | 32868 ft | 495 kts | 123° |
| 2026-05-01 12:15 | 14.56728 | 70.61337 | 32870 ft | 495 kts | 123° |
| 2026-05-01 12:16 | 14.52925 | 70.67258 | 32869 ft | 494 kts | 123° |
| 2026-05-01 12:16 | 14.49132 | 70.73181 | 32869 ft | 495 kts | 123° |
| 2026-05-01 12:17 | 14.45334 | 70.79091 | 32869 ft | 495 kts | 123° |
| 2026-05-01 12:17 | 14.41527 | 70.85008 | 32873 ft | 495 kts | 123° |
| 2026-05-01 12:18 | 14.37713 | 70.90937 | 32868 ft | 495 kts | 123° |
| 2026-05-01 12:18 | 14.33908 | 70.96859 | 32861 ft | 496 kts | 123° |
| 2026-05-01 12:19 | 14.30124 | 71.02838 | 32820 ft | 497 kts | 123° |
| 2026-05-01 12:19 | 14.26361 | 71.08820 | 32826 ft | 497 kts | 123° |
| 2026-05-01 12:20 | 14.22591 | 71.14795 | 32822 ft | 497 kts | 123° |
| 2026-05-01 12:20 | 14.18814 | 71.20763 | 32824 ft | 497 kts | 123° |
| 2026-05-01 12:21 | 14.15043 | 71.26720 | 32823 ft | 496 kts | 123° |
| 2026-05-01 12:21 | 14.11265 | 71.32681 | 32824 ft | 497 kts | 123° |
| 2026-05-01 12:22 | 14.07491 | 71.38642 | 32828 ft | 497 kts | 123° |
| 2026-05-01 12:22 | 14.03705 | 71.44601 | 32822 ft | 497 kts | 123° |
| 2026-05-01 12:23 | 13.99924 | 71.50559 | 32824 ft | 497 kts | 123° |
| 2026-05-01 12:23 | 13.96147 | 71.56511 | 32820 ft | 496 kts | 123° |
| 2026-05-01 12:24 | 13.92369 | 71.62450 | 32825 ft | 496 kts | 123° |
| 2026-05-01 12:24 | 13.88592 | 71.68388 | 32824 ft | 495 kts | 123° |
| 2026-05-01 12:25 | 13.82925 | 71.77281 | 32825 ft | 495 kts | 123° |
| 2026-05-01 12:26 | 13.79145 | 71.83214 | 32824 ft | 496 kts | 123° |
| 2026-05-01 12:26 | 13.73470 | 71.92110 | 32819 ft | 496 kts | 123° |
| 2026-05-01 12:27 | 13.67790 | 72.01020 | 32827 ft | 497 kts | 123° |
| 2026-05-01 12:28 | 13.62210 | 72.10004 | 32822 ft | 496 kts | 122° |
| 2026-05-01 12:29 | 13.56669 | 72.18994 | 32828 ft | 496 kts | 122° |
| 2026-05-01 12:29 | 13.51110 | 72.27961 | 32834 ft | 496 kts | 122° |
| 2026-05-01 12:30 | 13.45548 | 72.36919 | 32832 ft | 496 kts | 122° |
| 2026-05-01 12:31 | 13.41832 | 72.42882 | 32833 ft | 496 kts | 122° |
| 2026-05-01 12:31 | 13.38122 | 72.48851 | 32832 ft | 496 kts | 122° |
| 2026-05-01 12:32 | 13.34416 | 72.54816 | 32833 ft | 495 kts | 122° |
| 2026-05-01 12:32 | 13.28848 | 72.63750 | 32847 ft | 495 kts | 122° |
| 2026-05-01 12:33 | 13.25157 | 72.69702 | 32836 ft | 494 kts | 122° |
| 2026-05-01 12:33 | 13.21442 | 72.75646 | 32830 ft | 495 kts | 122° |
| 2026-05-01 12:34 | 13.17719 | 72.81593 | 32835 ft | 495 kts | 122° |
| 2026-05-01 12:34 | 13.13994 | 72.87550 | 32843 ft | 496 kts | 122° |
| 2026-05-01 12:35 | 13.10271 | 72.93507 | 32832 ft | 496 kts | 122° |
| 2026-05-01 12:35 | 13.06545 | 72.99469 | 32831 ft | 496 kts | 122° |
| 2026-05-01 12:36 | 13.02821 | 73.05422 | 32844 ft | 496 kts | 122° |
| 2026-05-01 12:36 | 12.99092 | 73.11372 | 32831 ft | 496 kts | 122° |
| 2026-05-01 12:37 | 12.95366 | 73.17312 | 32832 ft | 495 kts | 122° |
| 2026-05-01 12:37 | 12.91648 | 73.23250 | 32833 ft | 495 kts | 122° |
| 2026-05-01 12:38 | 12.87922 | 73.29184 | 32834 ft | 494 kts | 122° |
| 2026-05-01 12:38 | 12.84203 | 73.35112 | 32834 ft | 495 kts | 122° |
| 2026-05-01 12:39 | 12.80474 | 73.41044 | 32833 ft | 495 kts | 122° |
| 2026-05-01 12:39 | 12.76732 | 73.46978 | 32835 ft | 496 kts | 122° |
| 2026-05-01 12:40 | 12.72998 | 73.52917 | 32834 ft | 496 kts | 122° |
| 2026-05-01 12:40 | 12.69267 | 73.58852 | 32831 ft | 496 kts | 122° |
| 2026-05-01 12:41 | 12.65531 | 73.64778 | 32834 ft | 495 kts | 122° |
| 2026-05-01 12:41 | 12.61796 | 73.70695 | 32843 ft | 495 kts | 122° |
| 2026-05-01 12:42 | 12.58063 | 73.76618 | 32827 ft | 495 kts | 122° |
| 2026-05-01 12:42 | 12.54308 | 73.82555 | 33086 ft | 497 kts | 122° |
| 2026-05-01 12:43 | 12.52437 | 73.85514 | 33494 ft | 493 kts | 122° |
| 2026-05-01 12:43 | 12.50581 | 73.88451 | 33902 ft | 490 kts | 122° |
| 2026-05-01 12:43 | 12.48730 | 73.91379 | 34227 ft | 488 kts | 122° |
| 2026-05-01 12:43 | 12.46887 | 73.94293 | 34512 ft | 488 kts | 122° |
| 2026-05-01 12:44 | 12.45045 | 73.97207 | 34760 ft | 487 kts | 122° |
| 2026-05-01 12:44 | 12.43200 | 74.00125 | 34789 ft | 489 kts | 122° |
| 2026-05-01 12:45 | 12.35832 | 74.11760 | 34837 ft | 487 kts | 122° |
| 2026-05-01 12:45 | 12.32156 | 74.17568 | 34839 ft | 486 kts | 122° |
| 2026-05-01 12:46 | 12.28476 | 74.23366 | 34842 ft | 486 kts | 122° |
| 2026-05-01 12:46 | 12.24785 | 74.29142 | 34840 ft | 484 kts | 123° |
| 2026-05-01 12:47 | 12.21013 | 74.34853 | 34835 ft | 485 kts | 123° |
| 2026-05-01 12:47 | 12.17213 | 74.40558 | 34834 ft | 486 kts | 123° |
| 2026-05-01 12:48 | 12.13413 | 74.46287 | 34829 ft | 487 kts | 123° |
| 2026-05-01 12:48 | 12.09611 | 74.52027 | 34842 ft | 488 kts | 123° |
| 2026-05-01 12:49 | 12.05795 | 74.57781 | 34836 ft | 489 kts | 123° |
| 2026-05-01 12:49 | 12.01974 | 74.63543 | 34835 ft | 490 kts | 123° |
| 2026-05-01 12:50 | 11.98126 | 74.69344 | 34836 ft | 490 kts | 123° |
| 2026-05-01 12:50 | 11.94334 | 74.75058 | 34833 ft | 489 kts | 123° |
| 2026-05-01 12:51 | 11.90521 | 74.80803 | 34832 ft | 489 kts | 123° |
| 2026-05-01 12:52 | 11.84793 | 74.89415 | 34834 ft | 489 kts | 123° |
| 2026-05-01 12:52 | 11.79068 | 74.98034 | 34832 ft | 489 kts | 123° |
| 2026-05-01 12:53 | 11.73973 | 75.05679 | 34835 ft | 489 kts | 123° |
| 2026-05-01 12:54 | 11.70111 | 75.11468 | 34835 ft | 490 kts | 123° |
| 2026-05-01 12:54 | 11.64388 | 75.20073 | 34833 ft | 491 kts | 123° |
| 2026-05-01 12:55 | 11.58622 | 75.28713 | 34833 ft | 491 kts | 123° |
| 2026-05-01 12:56 | 11.54775 | 75.34467 | 34815 ft | 491 kts | 123° |
| 2026-05-01 12:56 | 11.50930 | 75.40229 | 34835 ft | 491 kts | 123° |
| 2026-05-01 12:57 | 11.47086 | 75.45985 | 34831 ft | 491 kts | 123° |
| 2026-05-01 12:57 | 11.41313 | 75.54614 | 34832 ft | 492 kts | 123° |
| 2026-05-01 12:58 | 11.37461 | 75.60365 | 34835 ft | 491 kts | 123° |
| 2026-05-01 12:59 | 11.31681 | 75.68996 | 34830 ft | 491 kts | 123° |
| 2026-05-01 12:59 | 11.25900 | 75.77626 | 34832 ft | 492 kts | 123° |
| 2026-05-01 13:00 | 11.20058 | 75.86222 | 34841 ft | 493 kts | 124° |
| 2026-05-01 13:01 | 11.14074 | 75.94727 | 34830 ft | 492 kts | 124° |
| 2026-05-01 13:02 | 11.08513 | 76.03507 | 34835 ft | 492 kts | 120° |
| 2026-05-01 13:07 | 10.68801 | 76.69164 | 34850 ft | 495 kts | 120° |
| 2026-05-01 13:08 | 10.65177 | 76.75117 | 34853 ft | 495 kts | 120° |
| 2026-05-01 13:08 | 10.61545 | 76.81069 | 34857 ft | 496 kts | 120° |
| 2026-05-01 13:09 | 10.57916 | 76.87022 | 34859 ft | 496 kts | 120° |
| 2026-05-01 13:09 | 10.54286 | 76.92974 | 34855 ft | 495 kts | 120° |
| 2026-05-01 13:10 | 10.50643 | 76.98925 | 34852 ft | 496 kts | 120° |
| 2026-05-01 13:10 | 10.46999 | 77.04896 | 34859 ft | 498 kts | 120° |
| 2026-05-01 13:11 | 10.43337 | 77.10898 | 34846 ft | 500 kts | 120° |
| 2026-05-01 13:11 | 10.39669 | 77.16899 | 34849 ft | 500 kts | 120° |
| 2026-05-01 13:12 | 10.35997 | 77.22899 | 34844 ft | 500 kts | 120° |
| 2026-05-01 13:12 | 10.32320 | 77.28898 | 34817 ft | 500 kts | 120° |
| 2026-05-01 13:13 | 10.28653 | 77.34887 | 34815 ft | 500 kts | 120° |
| 2026-05-01 13:13 | 10.24985 | 77.40877 | 34831 ft | 499 kts | 120° |
| 2026-05-01 13:14 | 10.21321 | 77.46851 | 34868 ft | 499 kts | 120° |
| 2026-05-01 13:14 | 10.17652 | 77.52823 | 34883 ft | 499 kts | 120° |
| 2026-05-01 13:15 | 10.13980 | 77.58802 | 34887 ft | 500 kts | 120° |
| 2026-05-01 13:15 | 10.10301 | 77.64799 | 34892 ft | 501 kts | 120° |
| 2026-05-01 13:16 | 10.06610 | 77.70813 | 34896 ft | 503 kts | 120° |
| 2026-05-01 13:16 | 10.02903 | 77.76840 | 34900 ft | 504 kts | 120° |
| 2026-05-01 13:17 | 9.95482 | 77.88896 | 34898 ft | 503 kts | 120° |
| 2026-05-01 13:18 | 9.89930 | 77.97915 | 34907 ft | 502 kts | 120° |
| 2026-05-01 13:18 | 9.86234 | 78.03915 | 34904 ft | 501 kts | 120° |
| 2026-05-01 13:19 | 9.82839 | 78.10062 | 34912 ft | 499 kts | 112° |
| 2026-05-01 13:20 | 9.79456 | 78.19992 | 34907 ft | 498 kts | 106° |
| 2026-05-01 13:20 | 9.77334 | 78.26668 | 34907 ft | 497 kts | 106° |
| 2026-05-01 13:21 | 9.74090 | 78.36676 | 34900 ft | 499 kts | 107° |
| 2026-05-01 13:21 | 9.71909 | 78.43357 | 34892 ft | 499 kts | 107° |
| 2026-05-01 13:22 | 9.69732 | 78.50037 | 34887 ft | 499 kts | 107° |
| 2026-05-01 13:22 | 9.67547 | 78.56708 | 34883 ft | 499 kts | 107° |
| 2026-05-01 13:23 | 9.65368 | 78.63375 | 34867 ft | 498 kts | 107° |
| 2026-05-01 13:23 | 9.63188 | 78.70040 | 34871 ft | 499 kts | 107° |
| 2026-05-01 13:24 | 9.61004 | 78.76710 | 34864 ft | 499 kts | 107° |
| 2026-05-01 13:25 | 9.57723 | 78.86738 | 34859 ft | 500 kts | 107° |
| 2026-05-01 13:25 | 9.55526 | 78.93424 | 34859 ft | 500 kts | 107° |
| 2026-05-01 13:26 | 9.53339 | 79.00101 | 34850 ft | 499 kts | 107° |
| 2026-05-01 13:26 | 9.51147 | 79.06770 | 34851 ft | 498 kts | 107° |
| 2026-05-01 13:27 | 9.48959 | 79.13432 | 34845 ft | 499 kts | 107° |
| 2026-05-01 13:27 | 9.45638 | 79.23424 | 34840 ft | 499 kts | 107° |
| 2026-05-01 13:28 | 9.42302 | 79.33413 | 34835 ft | 499 kts | 107° |
| 2026-05-01 13:29 | 9.37865 | 79.46731 | 34833 ft | 499 kts | 108° |
| 2026-05-01 13:31 | 9.31217 | 79.66638 | 34805 ft | 499 kts | 107° |
| 2026-05-01 13:32 | 9.25689 | 79.83298 | 34818 ft | 499 kts | 107° |
| 2026-05-01 13:33 | 9.20149 | 79.99946 | 34809 ft | 498 kts | 107° |
| 2026-05-01 13:34 | 9.15703 | 80.13250 | 34812 ft | 499 kts | 108° |
| 2026-05-01 13:35 | 9.12359 | 80.23244 | 34815 ft | 500 kts | 108° |
| 2026-05-01 13:36 | 9.09367 | 80.32178 | 34820 ft | 502 kts | 108° |
| 2026-05-01 13:36 | 9.06011 | 80.42172 | 34808 ft | 503 kts | 108° |
| 2026-05-01 13:37 | 9.03760 | 80.48871 | 34812 ft | 502 kts | 108° |
| 2026-05-01 13:37 | 9.01506 | 80.55560 | 34810 ft | 503 kts | 108° |
| 2026-05-01 13:38 | 8.98136 | 80.65592 | 34809 ft | 501 kts | 108° |
| 2026-05-01 13:39 | 8.95893 | 80.72267 | 34819 ft | 501 kts | 108° |
| 2026-05-01 13:39 | 8.93652 | 80.78934 | 34833 ft | 501 kts | 108° |
| 2026-05-01 13:40 | 8.91399 | 80.85604 | 34825 ft | 501 kts | 108° |
| 2026-05-01 13:40 | 8.89147 | 80.92270 | 34815 ft | 501 kts | 108° |
| 2026-05-01 13:41 | 8.86901 | 80.98941 | 34830 ft | 501 kts | 108° |
| 2026-05-01 13:41 | 8.84648 | 81.05616 | 34826 ft | 502 kts | 108° |
| 2026-05-01 13:42 | 8.82399 | 81.12291 | 34834 ft | 502 kts | 108° |
| 2026-05-01 13:42 | 8.80140 | 81.18965 | 34813 ft | 502 kts | 108° |
| 2026-05-01 13:43 | 8.77882 | 81.25643 | 34821 ft | 502 kts | 108° |
| 2026-05-01 13:43 | 8.75636 | 81.32270 | 34832 ft | 502 kts | 108° |
| 2026-05-01 13:44 | 8.73376 | 81.38948 | 34824 ft | 502 kts | 108° |
| 2026-05-01 13:44 | 8.71110 | 81.45619 | 34833 ft | 502 kts | 108° |
| 2026-05-01 13:45 | 8.68846 | 81.52298 | 34829 ft | 502 kts | 108° |
| 2026-05-01 13:45 | 8.66580 | 81.58979 | 34824 ft | 503 kts | 108° |
| 2026-05-01 13:46 | 8.64307 | 81.65671 | 34832 ft | 503 kts | 109° |
| 2026-05-01 13:46 | 8.62037 | 81.72358 | 34813 ft | 502 kts | 109° |
| 2026-05-01 13:47 | 8.59777 | 81.79030 | 34814 ft | 501 kts | 109° |
| 2026-05-01 13:47 | 8.57506 | 81.85689 | 34834 ft | 501 kts | 109° |
| 2026-05-01 13:48 | 8.55236 | 81.92349 | 34845 ft | 501 kts | 109° |
| 2026-05-01 13:48 | 8.52965 | 81.99004 | 34845 ft | 501 kts | 109° |
| 2026-05-01 13:49 | 8.50699 | 82.05660 | 34839 ft | 501 kts | 109° |
| 2026-05-01 13:49 | 8.48429 | 82.12315 | 34845 ft | 501 kts | 109° |
| 2026-05-01 13:50 | 8.46159 | 82.18975 | 34844 ft | 502 kts | 109° |
| 2026-05-01 13:50 | 8.43883 | 82.25639 | 34841 ft | 502 kts | 109° |
| 2026-05-01 13:51 | 8.41607 | 82.32300 | 34841 ft | 501 kts | 109° |
| 2026-05-01 13:51 | 8.39333 | 82.38957 | 34842 ft | 502 kts | 109° |
| 2026-05-01 13:52 | 8.37051 | 82.45619 | 34844 ft | 502 kts | 109° |
| 2026-05-01 13:52 | 8.34771 | 82.52280 | 34841 ft | 502 kts | 109° |
| 2026-05-01 13:53 | 8.32506 | 82.58896 | 34855 ft | 502 kts | 109° |
| 2026-05-01 13:53 | 8.29077 | 82.68902 | 34854 ft | 503 kts | 109° |
| 2026-05-01 13:54 | 8.26788 | 82.75581 | 34852 ft | 504 kts | 109° |
| 2026-05-01 13:54 | 8.24490 | 82.82273 | 34854 ft | 505 kts | 109° |
| 2026-05-01 13:55 | 8.22204 | 82.88969 | 34849 ft | 504 kts | 108° |
| 2026-05-01 13:55 | 8.20029 | 82.95704 | 34852 ft | 505 kts | 107° |
| 2026-05-01 13:56 | 8.17902 | 83.02460 | 34851 ft | 505 kts | 107° |
| 2026-05-01 13:56 | 8.15762 | 83.09211 | 34852 ft | 506 kts | 107° |
| 2026-05-01 13:57 | 8.13604 | 83.15975 | 34854 ft | 506 kts | 107° |
| 2026-05-01 13:57 | 8.11441 | 83.22738 | 34850 ft | 507 kts | 107° |
| 2026-05-01 13:58 | 8.09271 | 83.29504 | 34846 ft | 507 kts | 107° |
| 2026-05-01 13:58 | 8.07101 | 83.36272 | 34839 ft | 507 kts | 107° |
| 2026-05-01 13:59 | 8.04929 | 83.43038 | 34841 ft | 507 kts | 107° |
| 2026-05-01 13:59 | 8.02758 | 83.49807 | 34844 ft | 507 kts | 107° |
| 2026-05-01 14:00 | 8.00582 | 83.56576 | 34836 ft | 507 kts | 107° |
| 2026-05-01 14:00 | 7.98429 | 83.63296 | 34838 ft | 507 kts | 107° |
| 2026-05-01 14:01 | 7.96262 | 83.70052 | 34845 ft | 507 kts | 107° |
| 2026-05-01 14:01 | 7.94076 | 83.76816 | 34843 ft | 507 kts | 107° |
| 2026-05-01 14:02 | 7.91898 | 83.83583 | 34843 ft | 508 kts | 107° |
| 2026-05-01 14:02 | 7.89721 | 83.90352 | 34844 ft | 507 kts | 107° |
| 2026-05-01 14:03 | 7.87543 | 83.97114 | 34839 ft | 507 kts | 107° |
| 2026-05-01 14:03 | 7.85361 | 84.03870 | 34843 ft | 507 kts | 107° |
| 2026-05-01 14:04 | 7.83185 | 84.10633 | 34842 ft | 507 kts | 107° |
| 2026-05-01 14:04 | 7.81368 | 84.16251 | 34845 ft | 507 kts | 107° |
| 2026-05-01 14:05 | 7.78815 | 84.24163 | 34847 ft | 508 kts | 107° |
| 2026-05-01 14:05 | 7.76625 | 84.30932 | 34842 ft | 508 kts | 107° |
| 2026-05-01 14:06 | 7.74434 | 84.37698 | 34839 ft | 507 kts | 107° |
| 2026-05-01 14:06 | 7.72249 | 84.44452 | 34845 ft | 506 kts | 107° |
| 2026-05-01 14:07 | 7.70064 | 84.51201 | 34845 ft | 506 kts | 108° |
| 2026-05-01 14:08 | 7.66782 | 84.61313 | 34838 ft | 505 kts | 108° |
| 2026-05-01 14:08 | 7.64603 | 84.68053 | 34834 ft | 506 kts | 108° |
| 2026-05-01 14:09 | 7.62419 | 84.74790 | 34838 ft | 506 kts | 108° |
| 2026-05-01 14:09 | 7.60247 | 84.81485 | 34835 ft | 506 kts | 108° |
| 2026-05-01 14:10 | 7.58054 | 84.88223 | 34831 ft | 506 kts | 108° |
| 2026-05-01 14:10 | 7.55863 | 84.94963 | 34837 ft | 506 kts | 108° |
| 2026-05-01 14:11 | 7.53673 | 85.01699 | 34832 ft | 506 kts | 108° |
| 2026-05-01 14:11 | 7.50386 | 85.11799 | 34833 ft | 505 kts | 108° |
| 2026-05-01 14:12 | 7.48201 | 85.18522 | 34833 ft | 505 kts | 108° |
| 2026-05-01 14:12 | 7.46014 | 85.25231 | 34833 ft | 504 kts | 108° |
| 2026-05-01 14:13 | 7.44197 | 85.30806 | 34812 ft | 503 kts | 108° |
| 2026-05-01 14:13 | 7.41447 | 85.38571 | 34827 ft | 503 kts | 111° |
| 2026-05-01 14:14 | 7.38920 | 85.45148 | 34832 ft | 504 kts | 111° |
| 2026-05-01 14:14 | 7.36415 | 85.51744 | 34832 ft | 505 kts | 111° |
| 2026-05-01 14:15 | 7.33941 | 85.58366 | 34826 ft | 505 kts | 110° |
| 2026-05-01 14:15 | 7.31485 | 85.65001 | 34813 ft | 505 kts | 110° |
| 2026-05-01 14:16 | 7.29023 | 85.71623 | 34833 ft | 504 kts | 111° |
| 2026-05-01 14:16 | 7.26558 | 85.78237 | 34823 ft | 504 kts | 111° |
| 2026-05-01 14:17 | 7.24113 | 85.84800 | 34835 ft | 505 kts | 111° |
| 2026-05-01 14:17 | 7.21648 | 85.91414 | 34815 ft | 504 kts | 111° |
| 2026-05-01 14:18 | 7.19185 | 85.98026 | 34831 ft | 504 kts | 111° |
| 2026-05-01 14:18 | 7.17136 | 86.03518 | 34837 ft | 504 kts | 111° |
| 2026-05-01 14:19 | 7.14255 | 86.11237 | 34831 ft | 504 kts | 111° |
| 2026-05-01 14:19 | 7.11793 | 86.17830 | 34831 ft | 503 kts | 111° |
| 2026-05-01 14:20 | 7.08096 | 86.27699 | 34833 ft | 502 kts | 111° |
| 2026-05-01 14:21 | 7.05639 | 86.34273 | 34813 ft | 502 kts | 111° |
| 2026-05-01 14:21 | 7.03187 | 86.40839 | 34833 ft | 502 kts | 111° |
| 2026-05-01 14:22 | 6.99493 | 86.50710 | 34831 ft | 502 kts | 111° |
| 2026-05-01 14:22 | 6.97031 | 86.57284 | 34813 ft | 502 kts | 111° |
| 2026-05-01 14:23 | 6.94571 | 86.63851 | 34831 ft | 502 kts | 111° |
| 2026-05-01 14:23 | 6.92108 | 86.70420 | 34819 ft | 501 kts | 111° |
| 2026-05-01 14:24 | 6.89645 | 86.76986 | 34819 ft | 502 kts | 111° |
| 2026-05-01 14:24 | 6.87178 | 86.83565 | 34808 ft | 502 kts | 111° |
| 2026-05-01 14:25 | 6.85125 | 86.89019 | 34813 ft | 501 kts | 111° |
| 2026-05-01 14:25 | 6.82667 | 86.95564 | 34815 ft | 500 kts | 111° |
| 2026-05-01 14:26 | 6.78980 | 87.05380 | 34823 ft | 500 kts | 111° |
| 2026-05-01 14:27 | 6.76524 | 87.11921 | 34806 ft | 500 kts | 111° |
| 2026-05-01 14:27 | 6.74065 | 87.18458 | 34816 ft | 500 kts | 111° |
| 2026-05-01 14:28 | 6.70374 | 87.28260 | 34808 ft | 499 kts | 111° |
| 2026-05-01 14:28 | 6.67913 | 87.34788 | 34814 ft | 499 kts | 111° |
| 2026-05-01 14:29 | 6.65456 | 87.41311 | 34801 ft | 498 kts | 111° |
| 2026-05-01 14:30 | 6.60550 | 87.54321 | 34802 ft | 496 kts | 111° |
| 2026-05-01 14:31 | 6.56881 | 87.64057 | 34811 ft | 496 kts | 111° |
| 2026-05-01 14:31 | 6.54432 | 87.70547 | 34812 ft | 496 kts | 111° |
| 2026-05-01 14:32 | 6.51983 | 87.77024 | 34807 ft | 495 kts | 112° |
| 2026-05-01 14:32 | 6.49537 | 87.83497 | 34810 ft | 495 kts | 111° |
| 2026-05-01 14:33 | 6.47093 | 87.89964 | 34806 ft | 495 kts | 111° |
| 2026-05-01 14:33 | 6.44607 | 87.96408 | 34799 ft | 494 kts | 115° |
| 2026-05-01 14:34 | 6.41220 | 88.02391 | 34803 ft | 491 kts | 126° |
| 2026-05-01 14:34 | 6.36942 | 88.07722 | 34807 ft | 490 kts | 131° |
| 2026-05-01 14:35 | 6.32497 | 88.12932 | 34800 ft | 491 kts | 131° |
| 2026-05-01 14:35 | 6.28068 | 88.18149 | 34810 ft | 491 kts | 131° |
| 2026-05-01 14:36 | 6.23688 | 88.23353 | 34812 ft | 490 kts | 131° |
| 2026-05-01 14:36 | 6.19297 | 88.28585 | 34799 ft | 490 kts | 131° |
| 2026-05-01 14:37 | 6.14871 | 88.33858 | 34793 ft | 491 kts | 131° |
| 2026-05-01 14:37 | 6.10501 | 88.39064 | 34793 ft | 490 kts | 131° |
| 2026-05-01 14:38 | 6.06101 | 88.44296 | 34801 ft | 490 kts | 131° |
| 2026-05-01 14:38 | 6.01698 | 88.49533 | 34797 ft | 490 kts | 131° |
| 2026-05-01 14:39 | 5.97296 | 88.54769 | 34801 ft | 491 kts | 131° |
| 2026-05-01 14:39 | 5.92888 | 88.60008 | 34795 ft | 492 kts | 131° |
| 2026-05-01 14:40 | 5.88466 | 88.65258 | 34793 ft | 492 kts | 131° |
| 2026-05-01 14:40 | 5.84046 | 88.70508 | 34797 ft | 492 kts | 130° |
| 2026-05-01 14:41 | 5.79641 | 88.75754 | 34793 ft | 491 kts | 131° |
| 2026-05-01 14:41 | 5.75245 | 88.80976 | 34794 ft | 488 kts | 131° |
| 2026-05-01 14:42 | 5.70861 | 88.86179 | 34793 ft | 488 kts | 131° |
| 2026-05-01 14:42 | 5.66483 | 88.91379 | 34799 ft | 488 kts | 131° |
| 2026-05-01 14:43 | 5.62098 | 88.96577 | 34794 ft | 489 kts | 131° |
| 2026-05-01 14:43 | 5.57702 | 89.01787 | 34796 ft | 489 kts | 130° |
| 2026-05-01 14:44 | 5.53305 | 89.07003 | 34800 ft | 490 kts | 130° |
| 2026-05-01 14:44 | 5.46700 | 89.14845 | 34782 ft | 491 kts | 130° |
| 2026-05-01 14:45 | 5.40076 | 89.22687 | 34774 ft | 491 kts | 130° |
| 2026-05-01 14:46 | 5.35663 | 89.27923 | 34781 ft | 491 kts | 130° |
| 2026-05-01 14:46 | 5.29043 | 89.35758 | 34777 ft | 490 kts | 130° |
| 2026-05-01 14:47 | 5.24632 | 89.40978 | 34780 ft | 490 kts | 130° |
| 2026-05-01 14:48 | 5.18035 | 89.48792 | 34776 ft | 488 kts | 130° |
| 2026-05-01 14:48 | 5.11450 | 89.56587 | 34775 ft | 488 kts | 130° |
| 2026-05-01 14:49 | 5.02672 | 89.66967 | 34775 ft | 487 kts | 130° |
| 2026-05-01 14:50 | 4.93905 | 89.77334 | 34774 ft | 487 kts | 130° |
| 2026-05-01 14:51 | 4.87327 | 89.85107 | 34777 ft | 487 kts | 130° |
| 2026-05-01 14:52 | 4.80747 | 89.92885 | 34775 ft | 488 kts | 130° |
| 2026-05-01 14:53 | 4.74155 | 90.00667 | 34774 ft | 488 kts | 130° |
| 2026-05-01 14:53 | 4.69774 | 90.05844 | 34775 ft | 486 kts | 130° |
| 2026-05-01 14:54 | 4.65409 | 90.10997 | 34773 ft | 484 kts | 130° |
| 2026-05-01 14:54 | 4.61061 | 90.16128 | 34774 ft | 482 kts | 130° |
| 2026-05-01 14:55 | 4.56720 | 90.21251 | 34776 ft | 482 kts | 130° |
| 2026-05-01 14:55 | 4.52382 | 90.26372 | 34785 ft | 481 kts | 130° |
| 2026-05-01 14:56 | 4.48056 | 90.31477 | 34883 ft | 480 kts | 130° |
| 2026-05-01 14:56 | 4.43769 | 90.36604 | 34889 ft | 480 kts | 126° |
| 2026-05-01 14:57 | 4.40532 | 90.42448 | 34906 ft | 482 kts | 113° |
| 2026-05-01 14:57 | 4.37810 | 90.52154 | 34900 ft | 484 kts | 104° |
| 2026-05-01 14:58 | 4.36240 | 90.58722 | 34895 ft | 484 kts | 104° |
| 2026-05-01 14:58 | 4.34632 | 90.65277 | 34900 ft | 485 kts | 105° |
| 2026-05-01 14:59 | 4.32995 | 90.71832 | 34898 ft | 485 kts | 105° |
| 2026-05-01 14:59 | 4.31357 | 90.78372 | 34898 ft | 484 kts | 105° |
| 2026-05-01 15:00 | 4.28895 | 90.88171 | 34898 ft | 483 kts | 105° |
| 2026-05-01 15:01 | 4.27275 | 90.94651 | 34898 ft | 482 kts | 105° |
| 2026-05-01 15:01 | 4.25630 | 91.01212 | 34900 ft | 482 kts | 105° |
| 2026-05-01 15:02 | 4.24009 | 91.07668 | 34907 ft | 481 kts | 105° |
| 2026-05-01 15:02 | 4.22377 | 91.14168 | 34907 ft | 481 kts | 105° |
| 2026-05-01 15:03 | 4.20751 | 91.20664 | 34909 ft | 480 kts | 105° |
| 2026-05-01 15:03 | 4.19120 | 91.27160 | 34910 ft | 480 kts | 105° |
| 2026-05-01 15:04 | 4.17494 | 91.33643 | 34907 ft | 480 kts | 105° |
| 2026-05-01 15:04 | 4.15868 | 91.40110 | 34906 ft | 478 kts | 105° |
| 2026-05-01 15:05 | 4.14248 | 91.46559 | 34906 ft | 477 kts | 105° |
| 2026-05-01 15:05 | 4.12629 | 91.52996 | 34910 ft | 476 kts | 105° |
| 2026-05-01 15:06 | 4.11015 | 91.59423 | 34905 ft | 475 kts | 105° |
| 2026-05-01 15:06 | 4.09401 | 91.65833 | 34909 ft | 474 kts | 105° |
| 2026-05-01 15:07 | 4.07789 | 91.72236 | 34906 ft | 473 kts | 105° |
| 2026-05-01 15:07 | 4.06187 | 91.78620 | 34910 ft | 472 kts | 105° |
| 2026-05-01 15:08 | 4.04577 | 91.84998 | 34905 ft | 473 kts | 105° |
| 2026-05-01 15:08 | 4.02971 | 91.91381 | 34910 ft | 473 kts | 105° |
| 2026-05-01 15:09 | 4.01360 | 91.97773 | 34907 ft | 474 kts | 105° |
| 2026-05-01 15:09 | 3.99738 | 92.04163 | 34907 ft | 473 kts | 106° |
| 2026-05-01 15:10 | 3.98365 | 92.09462 | 34914 ft | 473 kts | 106° |
| 2026-05-01 15:10 | 3.95880 | 92.19015 | 34906 ft | 472 kts | 106° |
| 2026-05-01 15:11 | 3.93402 | 92.28566 | 34908 ft | 472 kts | 106° |
| 2026-05-01 15:12 | 3.91754 | 92.34929 | 34906 ft | 472 kts | 106° |
| 2026-05-01 15:12 | 3.89282 | 92.44472 | 34905 ft | 472 kts | 106° |
| 2026-05-01 15:14 | 3.85168 | 92.60366 | 34909 ft | 471 kts | 106° |
| 2026-05-01 15:14 | 3.82690 | 92.69899 | 34908 ft | 473 kts | 105° |
| 2026-05-01 15:15 | 3.79379 | 92.82649 | 34906 ft | 474 kts | 105° |
| 2026-05-01 15:16 | 3.76054 | 92.95442 | 34864 ft | 476 kts | 105° |
| 2026-05-01 15:18 | 3.71886 | 93.11489 | 34867 ft | 477 kts | 105° |
| 2026-05-01 15:19 | 3.68547 | 93.24324 | 34866 ft | 476 kts | 105° |
| 2026-05-01 15:19 | 3.66038 | 93.33946 | 34868 ft | 477 kts | 105° |
| 2026-05-01 15:20 | 3.63528 | 93.43585 | 34874 ft | 478 kts | 105° |
| 2026-05-01 15:21 | 3.61851 | 93.50018 | 34862 ft | 478 kts | 105° |
| 2026-05-01 15:21 | 3.60185 | 93.56411 | 34872 ft | 478 kts | 105° |
| 2026-05-01 15:22 | 3.57669 | 93.66066 | 34882 ft | 477 kts | 105° |
| 2026-05-01 15:22 | 3.55983 | 93.72536 | 34885 ft | 478 kts | 105° |
| 2026-05-01 15:23 | 3.54313 | 93.78941 | 34885 ft | 479 kts | 105° |
| 2026-05-01 15:23 | 3.52616 | 93.85437 | 34877 ft | 479 kts | 105° |
| 2026-05-01 15:24 | 3.50943 | 93.91845 | 34884 ft | 479 kts | 105° |
| 2026-05-01 15:24 | 3.49260 | 93.98292 | 34878 ft | 480 kts | 105° |
| 2026-05-01 15:25 | 3.47573 | 94.04751 | 34874 ft | 479 kts | 105° |
| 2026-05-01 15:25 | 3.45886 | 94.11207 | 34882 ft | 480 kts | 105° |
| 2026-05-01 15:26 | 3.44196 | 94.17667 | 34880 ft | 480 kts | 105° |
| 2026-05-01 15:26 | 3.42509 | 94.24132 | 34884 ft | 480 kts | 105° |
| 2026-05-01 15:27 | 3.40816 | 94.30594 | 34885 ft | 480 kts | 105° |
| 2026-05-01 15:28 | 3.38289 | 94.40274 | 34889 ft | 479 kts | 105° |
| 2026-05-01 15:28 | 3.36595 | 94.46730 | 34889 ft | 479 kts | 105° |
| 2026-05-01 15:29 | 3.34059 | 94.56423 | 34888 ft | 480 kts | 105° |
| 2026-05-01 15:30 | 3.30669 | 94.69366 | 34888 ft | 481 kts | 105° |
| 2026-05-01 15:31 | 3.25100 | 94.88649 | 34895 ft | 480 kts | 114° |
| 2026-05-01 15:32 | 3.19785 | 95.00926 | 34891 ft | 481 kts | 114° |
| 2026-05-01 15:34 | 3.11905 | 95.19408 | 34888 ft | 483 kts | 114° |